Main page
METAR-TAF:

METAR-TAF

Airports :

Cairns, Australia

Cairns Airport

latitude: 16-53S, longitude: 145-45E, elevation: 3 m

Current weather observation

The report was made 31 minutes ago, at 02:00 UTC
Wind 15 kt from the East/Southeast
Temperature 30°C
Humidity 49%
Pressure 1012 hPa
Visibility 10 km or more
Few clouds at a height of 4000 ft

METAR: YBCS 220200Z 12015KT 9999 FEW040 30/18 Q1012

Time: 12:31 (02:31 UTC)

Forecast

The report was made 3 hours and 56 minutes ago, at 22:35 UTC
Forecast valid from 22 at 00 UTC to 22 at 24 UTC
Wind 14 kt from the Southeast
Visibility 10 km or more
Few clouds at a height of 3500 ft
From 22 at 0800 UTC
Wind 10 kt from the South/Southeast
Visibility 10 km or more
Scattered clouds at a height of 2500 ft

TAF: YBCS 212235Z 2200/2224 13014KT 9999 FEW035 FM220800 15010KT 9999 SCT025

Weather observations and forecasts of more than 4000 airports (METAR and TAF reports).

The available stations are represented by yellow and red dots on the map.

Hover mouse over dot to see the name of the station.

Then click to see weather observations and forecasts.

To change the map : click on the green buttons with a black cross to zoom in, on the green button with a dash to zoom out, or on the green arrows for adjacent maps.


METAR-TAF: